Time;durP1;ratioP1;P1;durP2;ratioP2;P2;SDS_P1;SDS_P2;PMS_P1;PMS_P2;Temp;Humidity;BMP_temperature;BMP_pressure;BME280_temperature;BME280_humidity;BME280_pressure;Samples;Min_cycle;Max_cycle;Signal;HPM_P1;HPM_P2
2021/11/01 00:00:09;;;;;;;11.00;1.67;;;;;;;-145.18;100.00;60484.78;5079173;28;20095;-71
2021/11/01 00:02:35;;;;;;;4.17;1.43;;;;;;;-145.18;100.00;60484.78;5079433;28;20212;-69
2021/11/01 00:05:01;;;;;;;6.57;1.00;;;;;;;-145.18;100.00;60484.78;5068058;28;20050;-70
2021/11/01 00:07:27;;;;;;;5.80;0.80;;;;;;;-145.18;100.00;60484.78;5080139;28;20418;-70
2021/11/01 00:09:54;;;;;;;2.83;1.00;;;;;;;-145.18;100.00;60484.78;5073136;28;20119;-70
2021/11/01 00:12:20;;;;;;;7.40;1.37;;;;;;;-145.18;100.00;60484.78;5069052;28;20036;-70
2021/11/01 00:14:45;;;;;;;4.43;0.97;;;;;;;-145.18;100.00;60484.78;5073871;28;20476;-72
2021/11/01 00:17:11;;;;;;;5.80;1.13;;;;;;;-145.18;100.00;60484.78;5079315;28;20226;-70
2021/11/01 00:19:36;;;;;;;9.67;1.30;;;;;;;-145.18;100.00;60484.78;5078700;28;20036;-70
2021/11/01 00:22:02;;;;;;;6.47;1.50;;;;;;;-145.18;100.00;60484.78;5075745;28;20404;-70
2021/11/01 00:24:28;;;;;;;7.83;1.20;;;;;;;-145.18;100.00;60484.78;5068230;28;20456;-70
2021/11/01 00:26:53;;;;;;;8.67;1.87;;;;;;;-145.18;100.00;60484.78;5078671;28;20223;-70
2021/11/01 00:29:19;;;;;;;3.60;1.30;;;;;;;-145.18;100.00;60484.78;5071603;28;20036;-70
2021/11/01 00:31:44;;;;;;;6.20;1.23;;;;;;;-145.18;100.00;60484.78;5079572;28;20066;-70
2021/11/01 00:34:10;;;;;;;4.33;1.30;;;;;;;-145.18;100.00;60484.78;5078270;28;20028;-70
2021/11/01 00:36:35;;;;;;;5.43;1.00;;;;;;;-145.18;100.00;60484.78;5078834;28;20028;-70
2021/11/01 00:39:01;;;;;;;6.47;1.10;;;;;;;-145.18;100.00;60484.78;5070615;28;20212;-70
2021/11/01 00:41:27;;;;;;;10.47;2.03;;;;;;;-145.18;100.00;60484.78;5077297;28;20027;-70
2021/11/01 00:43:52;;;;;;;7.43;1.37;;;;;;;-145.18;100.00;60484.78;5071331;28;20498;-70
2021/11/01 00:46:18;;;;;;;6.27;1.47;;;;;;;-145.18;100.00;60484.78;5078047;28;20444;-70
2021/11/01 00:48:44;;;;;;;4.47;1.33;;;;;;;-145.18;100.00;60484.78;5078924;28;20042;-72
2021/11/01 00:51:09;;;;;;;4.77;1.30;;;;;;;-145.18;100.00;60484.78;5072083;28;20176;-72
2021/11/01 00:53:36;;;;;;;6.20;1.97;;;;;;;-145.18;100.00;60484.78;5079286;28;20063;-70
2021/11/01 00:56:04;;;;;;;12.87;1.80;;;;;;;-145.18;100.00;60484.78;5079206;28;20032;-70
2021/11/01 00:58:31;;;;;;;8.53;1.27;;;;;;;-145.18;100.00;60484.78;5074272;28;20038;-70
2021/11/01 01:00:56;;;;;;;9.07;1.30;;;;;;;-145.18;100.00;60484.78;5078416;28;20036;-70
2021/11/01 01:03:23;;;;;;;5.23;1.50;;;;;;;-145.18;100.00;60484.78;5077730;28;20079;-70
2021/11/01 01:05:49;;;;;;;5.83;1.57;;;;;;;-145.18;100.00;60484.78;5074409;28;20056;-70
2021/11/01 01:08:17;;;;;;;8.93;1.63;;;;;;;-145.18;100.00;60484.78;5074977;28;20028;-72
2021/11/01 01:10:47;;;;;;;7.00;1.50;;;;;;;-145.18;100.00;60484.78;5078008;28;20035;-70
2021/11/01 01:13:17;;;;;;;5.90;1.47;;;;;;;-145.18;100.00;60484.78;5078685;28;20023;-70
2021/11/01 01:15:54;;;;;;;10.37;2.97;;;;;;;-145.18;100.00;60484.78;5079475;28;20028;-70
2021/11/01 01:18:33;;;;;;;7.20;1.70;;;;;;;-145.18;100.00;60484.78;5077191;28;20039;-70
2021/11/01 01:21:00;;;;;;;8.10;1.97;;;;;;;-145.18;100.00;60484.78;5067591;28;20036;-70
2021/11/01 01:23:27;;;;;;;9.50;1.53;;;;;;;-145.18;100.00;60484.78;5063539;28;20039;-70
2021/11/01 01:25:56;;;;;;;8.73;1.80;;;;;;;-145.18;100.00;60484.78;5077692;28;20036;-70
2021/11/01 01:28:28;;;;;;;8.30;1.90;;;;;;;-145.18;100.00;60484.78;5078549;28;20580;-70
2021/11/01 01:30:55;;;;;;;12.30;2.72;;;;;;;-145.18;100.00;60484.78;5078883;28;20055;-70
2021/11/01 01:33:21;;;;;;;9.53;1.90;;;;;;;-145.18;100.00;60484.78;5075526;28;20032;-70
2021/11/01 01:35:49;;;;;;;9.77;2.33;;;;;;;-145.18;100.00;60484.78;5077013;28;20032;-70
2021/11/01 01:38:16;;;;;;;7.13;1.63;;;;;;;-145.18;100.00;60484.78;5068052;28;20052;-70
2021/11/01 01:40:41;;;;;;;13.30;2.07;;;;;;;-145.18;100.00;60484.78;5076893;28;20276;-70
2021/11/01 01:43:07;;;;;;;8.97;1.97;;;;;;;-145.18;100.00;60484.78;5072144;28;20016;-70
2021/11/01 01:45:34;;;;;;;13.17;2.13;;;;;;;-145.18;100.00;60484.78;5074648;28;20027;-70
2021/11/01 01:48:00;;;;;;;8.67;1.80;;;;;;;-145.18;100.00;60484.78;5079548;28;20372;-70
2021/11/01 01:50:27;;;;;;;13.50;2.70;;;;;;;-145.18;100.00;60484.78;5079186;28;20285;-70
2021/11/01 01:52:53;;;;;;;18.63;2.53;;;;;;;-145.18;100.00;60484.78;5078686;28;20028;-70
2021/11/01 01:55:19;;;;;;;12.03;2.13;;;;;;;-145.18;100.00;60484.78;5074627;28;20440;-70
2021/11/01 01:57:52;;;;;;;10.00;2.10;;;;;;;-145.18;100.00;60484.78;5082045;28;20458;-72
2021/11/01 02:00:40;;;;;;;7.93;2.30;;;;;;;-145.18;100.00;60484.78;5081638;28;20059;-71
2021/11/01 02:03:06;;;;;;;10.03;2.00;;;;;;;-145.18;100.00;60484.78;5080724;28;20021;-67
2021/11/01 02:05:42;;;;;;;11.80;2.40;;;;;;;-145.18;100.00;60484.78;5077181;28;20047;-68
2021/11/01 02:08:12;;;;;;;11.90;2.40;;;;;;;-145.18;100.00;60484.78;5082562;28;20500;-68
2021/11/01 02:10:43;;;;;;;11.00;2.50;;;;;;;-145.18;100.00;60484.78;5078280;28;20372;-65
2021/11/01 02:13:15;;;;;;;8.07;2.57;;;;;;;-145.18;100.00;60484.78;5081399;28;20330;-66
2021/11/01 02:15:49;;;;;;;9.82;2.70;;;;;;;-145.18;100.00;60484.78;5076998;28;20334;-66
2021/11/01 02:18:17;;;;;;;11.37;2.53;;;;;;;-145.18;100.00;60484.78;5081383;28;20098;-65
2021/11/01 02:21:38;;;;;;;21.00;2.83;;;;;;;-145.18;100.00;60484.78;5078752;28;20078;-65
2021/11/01 02:24:10;;;;;;;11.07;2.07;;;;;;;-145.18;100.00;60484.78;5008283;28;20408;-65
2021/11/01 02:26:36;;;;;;;9.37;2.00;;;;;;;-145.18;100.00;60484.78;5081925;28;20067;-65
2021/11/01 02:29:04;;;;;;;10.03;2.07;;;;;;;-145.18;100.00;60484.78;5078353;28;20024;-65
2021/11/01 02:31:30;;;;;;;11.33;2.37;;;;;;;-145.18;100.00;60484.78;5082139;28;20031;-65
2021/11/01 02:33:56;;;;;;;15.87;3.63;;;;;;;-145.18;100.00;60484.78;5080061;28;20400;-65
2021/11/01 02:36:22;;;;;;;10.00;2.77;;;;;;;-145.18;100.00;60484.78;5079551;28;20027;-66
2021/11/01 02:38:52;;;;;;;13.57;3.00;;;;;;;-145.18;100.00;60484.78;5075629;28;20019;-67
2021/11/01 02:41:28;;;;;;;14.33;3.07;;;;;;;-145.18;100.00;60484.78;5072923;28;20393;-68
2021/11/01 02:43:59;;;;;;;13.50;2.80;;;;;;;-145.18;100.00;60484.78;5081529;28;20643;-66
2021/11/01 02:46:28;;;;;;;15.70;3.03;;;;;;;-145.18;100.00;60484.78;5081053;28;20107;-66
2021/11/01 02:48:55;;;;;;;15.13;2.60;;;;;;;-145.18;100.00;60484.78;5081463;28;20031;-65
2021/11/01 02:51:22;;;;;;;11.10;2.90;;;;;;;-145.18;100.00;60484.78;5071549;28;20303;-66
2021/11/01 02:53:50;;;;;;;10.03;2.83;;;;;;;-145.18;100.00;60484.78;5080965;28;20507;-66
2021/11/01 02:56:17;;;;;;;10.37;3.00;;;;;;;-145.18;100.00;60484.78;5081047;28;20032;-66
2021/11/01 02:58:43;;;;;;;11.17;2.70;;;;;;;-145.18;100.00;60484.78;5077558;28;20020;-66
2021/11/01 03:01:14;;;;;;;8.57;2.20;;;;;;;-145.18;100.00;60484.78;5081757;28;20071;-66
2021/11/01 03:03:42;;;;;;;10.98;2.70;;;;;;;-145.18;100.00;60484.78;5079774;28;20016;-65
2021/11/01 03:06:08;;;;;;;13.67;2.47;;;;;;;-145.18;100.00;60484.78;5071795;28;20031;-66
2021/11/01 03:08:34;;;;;;;11.07;2.67;;;;;;;-145.18;100.00;60484.78;5079987;28;20020;-66
2021/11/01 03:11:01;;;;;;;11.07;3.03;;;;;;;-145.18;100.00;60484.78;5070169;28;20036;-67
2021/11/01 03:13:30;;;;;;;9.87;3.17;;;;;;;-145.18;100.00;60484.78;5077847;28;20031;-66
2021/11/01 03:15:57;;;;;;;13.03;3.30;;;;;;;-145.18;100.00;60484.78;5077500;28;20416;-67
2021/11/01 03:18:28;;;;;;;10.90;3.00;;;;;;;-145.18;100.00;60484.78;5079146;28;20027;-67
2021/11/01 03:20:54;;;;;;;12.97;3.07;;;;;;;-145.18;100.00;60484.78;5080554;28;20256;-67
2021/11/01 03:23:26;;;;;;;18.77;2.60;;;;;;;-145.18;100.00;60484.78;5079974;28;20432;-66
2021/11/01 03:25:57;;;;;;;14.43;3.33;;;;;;;-145.18;100.00;60484.78;5078133;28;20503;-71
2021/11/01 03:28:24;;;;;;;17.23;3.23;;;;;;;-145.18;100.00;60484.78;5067637;28;20500;-71
2021/11/01 03:30:50;;;;;;;15.50;3.13;;;;;;;-145.18;100.00;60484.78;5081469;28;20491;-71
2021/11/01 03:33:16;;;;;;;16.63;3.10;;;;;;;-145.18;100.00;60484.78;5075225;28;20472;-71
2021/11/01 03:35:46;;;;;;;14.97;3.23;;;;;;;-145.18;100.00;60484.78;5079797;28;20023;-71
2021/11/01 03:38:13;;;;;;;14.53;3.43;;;;;;;-145.18;100.00;60484.78;5074978;28;20446;-71
2021/11/01 03:40:43;;;;;;;12.73;2.63;;;;;;;-145.18;100.00;60484.78;5079409;28;20032;-71
2021/11/01 03:43:09;;;;;;;11.27;2.80;;;;;;;-145.18;100.00;60484.78;5071376;28;20079;-71
2021/11/01 03:45:35;;;;;;;9.00;2.53;;;;;;;-145.18;100.00;60484.78;5074356;28;20662;-71
2021/11/01 03:48:04;;;;;;;16.07;3.77;;;;;;;-145.18;100.00;60484.78;5075641;28;20507;-71
2021/11/01 03:53:26;;;;;;;10.87;2.50;;;;;;;-145.18;100.00;60484.78;5009805;28;20180;-67
2021/11/01 03:55:52;;;;;;;14.23;2.30;;;;;;;-145.18;100.00;60484.78;5016548;28;20036;-67
2021/11/01 03:58:18;;;;;;;8.53;2.33;;;;;;;-145.18;100.00;60484.78;5015873;28;20052;-67
2021/11/01 04:00:46;;;;;;;11.23;2.17;;;;;;;-145.18;100.00;60484.78;5016808;28;20029;-67
2021/11/01 04:03:12;;;;;;;9.13;2.40;;;;;;;-145.18;100.00;60484.78;5016524;28;20116;-67
2021/11/01 04:05:37;;;;;;;10.20;2.20;;;;;;;-145.18;100.00;60484.78;5011085;28;20140;-66
2021/11/01 04:08:03;;;;;;;10.43;2.23;;;;;;;-145.18;100.00;60484.78;5017264;28;20022;-66
2021/11/01 04:10:29;;;;;;;12.03;2.40;;;;;;;-145.18;100.00;60484.78;5010924;28;20038;-67
2021/11/01 04:12:55;;;;;;;11.33;2.07;;;;;;;-145.18;100.00;60484.78;5007602;28;20052;-66
2021/11/01 04:15:23;;;;;;;8.00;2.00;;;;;;;-145.18;100.00;60484.78;5015791;28;20030;-67
2021/11/01 04:17:54;;;;;;;11.13;2.37;;;;;;;-145.18;100.00;60484.78;5017253;28;20277;-68
2021/11/01 04:23:09;;;;;;;9.53;2.20;;;;;;;-145.18;100.00;60484.78;5003273;28;20382;-67
2021/11/01 04:25:35;;;;;;;7.43;1.70;;;;;;;-145.18;100.00;60484.78;5011502;28;20445;-68
2021/11/01 04:28:02;;;;;;;8.97;1.73;;;;;;;-145.18;100.00;60484.78;5015074;28;20040;-68
2021/11/01 04:30:34;;;;;;;15.47;2.77;;;;;;;-145.18;100.00;60484.78;5061303;28;20063;-68
2021/11/01 04:33:03;;;;;;;12.02;3.03;;;;;;;-145.18;100.00;60484.78;5080120;28;20034;-68
2021/11/01 04:35:34;;;;;;;9.10;1.57;;;;;;;-145.18;100.00;60484.78;5078043;28;20325;-68
2021/11/01 04:38:06;;;;;;;8.87;2.00;;;;;;;-145.18;100.00;60484.78;5077652;28;20081;-68
2021/11/01 04:44:08;;;;;;;14.80;2.03;;;;;;;-145.18;100.00;60484.78;5036795;28;20283;-68
2021/11/01 04:54:30;;;;;;;8.40;1.73;;;;;;;-145.18;100.00;60484.78;5068240;28;20502;-67
2021/11/01 04:56:56;;;;;;;6.73;1.57;;;;;;;-145.18;100.00;60484.78;5078434;28;20032;-67
2021/11/01 04:59:22;;;;;;;7.30;1.57;;;;;;;-145.18;100.00;60484.78;5077365;28;20028;-67
2021/11/01 05:01:52;;;;;;;8.57;1.20;;;;;;;-145.18;100.00;60484.78;5078547;28;20115;-67
2021/11/01 05:04:24;;;;;;;8.33;1.90;;;;;;;-145.18;100.00;60484.78;5075726;28;20143;-67
2021/11/01 05:06:59;;;;;;;10.37;1.67;;;;;;;-145.18;100.00;60484.78;5078899;28;20224;-67
2021/11/01 05:09:47;;;;;;;6.63;2.17;;;;;;;-145.18;100.00;60484.78;5077349;28;20047;-67
2021/11/01 05:12:38;;;;;;;5.03;1.70;;;;;;;-145.18;100.00;60484.78;5067271;28;20085;-65
2021/11/01 05:15:12;;;;;;;11.53;2.20;;;;;;;-145.18;100.00;60484.78;5074581;28;20434;-65
2021/11/01 05:17:52;;;;;;;7.00;2.10;;;;;;;-145.18;100.00;60484.78;5063321;28;20029;-65
2021/11/01 05:20:37;;;;;;;8.10;2.03;;;;;;;-145.18;100.00;60484.78;5069513;28;20031;-65
2021/11/01 05:23:14;;;;;;;10.23;1.80;;;;;;;-145.18;100.00;60484.78;5072928;28;20193;-65
2021/11/01 05:25:48;;;;;;;8.63;1.50;;;;;;;-145.18;100.00;60484.78;5078596;28;20081;-65
2021/11/01 05:31:04;;;;;;;10.10;1.67;;;;;;;-145.18;100.00;60484.78;5079217;28;20226;-67
2021/11/01 05:36:28;;;;;;;11.07;2.00;;;;;;;-145.18;100.00;60484.78;5055095;28;20044;-66
2021/11/01 05:38:53;;;;;;;5.50;1.47;;;;;;;-145.18;100.00;60484.78;5068935;28;20516;-66
2021/11/01 05:41:19;;;;;;;6.17;1.63;;;;;;;-145.18;100.00;60484.78;5072582;28;20093;-66
2021/11/01 05:43:46;;;;;;;13.33;1.97;;;;;;;-145.18;100.00;60484.78;5075483;28;20454;-66
2021/11/01 05:46:12;;;;;;;8.47;2.40;;;;;;;-145.18;100.00;60484.78;5077914;28;20103;-66
2021/11/01 05:48:38;;;;;;;16.83;2.17;;;;;;;-145.18;100.00;60484.78;5076811;28;20492;-66
2021/11/01 05:51:06;;;;;;;16.17;2.37;;;;;;;-145.18;100.00;60484.78;5073686;28;20043;-65
2021/11/01 05:53:36;;;;;;;7.40;2.17;;;;;;;-145.18;100.00;60484.78;5075783;28;20332;-66
2021/11/01 06:04:54;;;;;;;7.50;1.60;;;;;;;-145.18;100.00;60484.78;4972654;28;20278;-69
2021/11/01 06:10:08;;;;;;;10.00;2.07;;;;;;;-145.18;100.00;60484.78;4974400;28;21444;-68
2021/11/01 06:15:18;;;;;;;8.57;1.43;;;;;;;-145.18;100.00;60484.78;4975960;28;20501;-67
2021/11/01 06:17:44;;;;;;;10.63;2.00;;;;;;;-145.18;100.00;60484.78;4974181;28;20039;-67
2021/11/01 06:20:12;;;;;;;16.87;4.50;;;;;;;-145.18;100.00;60484.78;4975348;28;20117;-67
2021/11/01 06:22:38;;;;;;;11.20;2.33;;;;;;;-145.18;100.00;60484.78;4976024;28;20608;-67
2021/11/01 06:25:09;;;;;;;10.40;2.70;;;;;;;-145.18;100.00;60484.78;4970847;28;20098;-66
2021/11/01 06:27:35;;;;;;;10.37;2.37;;;;;;;-145.18;100.00;60484.78;4975488;28;20152;-67
2021/11/01 06:33:13;;;;;;;14.60;2.10;;;;;;;-145.18;100.00;60484.78;4882878;29;20049;-67
2021/11/01 06:42:10;;;;;;;9.03;1.83;;;;;;;-145.18;100.00;60484.78;4909096;29;20531;-67
2021/11/01 06:44:25;;;;;;;10.53;2.17;;;;;;;-145.18;100.00;60484.78;4923345;29;20243;-67
2021/11/01 06:53:12;;;;;;;11.93;2.45;;;;;;;-145.18;100.00;60484.78;4857877;29;20041;-67
2021/11/01 06:58:25;;;;;;;7.80;1.50;;;;;;;-145.18;100.00;60484.78;4865153;29;20308;-68
2021/11/01 07:14:55;;;;;;;6.87;1.60;;;;;;;-145.18;100.00;60484.78;4922378;28;20588;-67
2021/11/01 07:17:35;;;;;;;9.43;1.90;;;;;;;-145.18;100.00;60484.78;4988248;28;20376;-67
2021/11/01 07:20:27;;;;;;;8.87;1.90;;;;;;;-145.18;100.00;60484.78;4982085;28;20041;-67
2021/11/01 07:23:23;;;;;;;9.32;2.25;;;;;;;-145.18;100.00;60484.78;4997949;28;20033;-67
2021/11/01 08:21:04;;;;;;;4.07;1.00;;;;;;;-145.18;100.00;60484.78;4977865;28;20030;-67
2021/11/01 08:26:59;;;;;;;5.37;1.23;;;;;;;-145.18;100.00;60484.78;4957437;28;20070;-67
2021/11/01 08:29:24;;;;;;;4.17;1.00;;;;;;;-145.18;100.00;60484.78;4974054;28;20249;-67
2021/11/01 08:49:12;;;;;;;4.00;0.90;;;;;;;-145.18;100.00;60484.78;4959473;28;20301;-68
2021/11/01 09:01:16;;;;;;;5.90;1.57;;;;;;;-145.18;100.00;60484.78;5029186;28;20025;-67
2021/11/01 09:02:48;;;;;;;5.90;1.20;;;;;;;-145.18;100.00;60484.78;5025629;28;20207;-67
2021/11/01 09:19:56;;;;;;;6.73;2.30;;;;;;;-145.18;100.00;60484.78;4918754;29;20175;-67
2021/11/01 09:25:19;;;;;;;5.97;2.23;;;;;;;-145.18;100.00;60484.78;4918831;29;20473;-68
2021/11/01 09:27:54;;;;;;;9.10;2.60;;;;;;;-145.18;100.00;60484.78;4909589;29;20032;-67
2021/11/01 09:36:03;;;;;;;5.97;2.23;;;;;;;-145.18;100.00;60484.78;4917521;29;20523;-68
2021/11/01 09:41:15;;;;;;;5.30;2.10;;;;;;;-145.18;100.00;60484.78;4899596;29;20044;-67
2021/11/01 09:43:45;;;;;;;4.63;2.10;;;;;;;-145.18;100.00;60484.78;4899567;29;20079;-68
2021/11/01 09:46:11;;;;;;;4.70;1.93;;;;;;;-145.18;100.00;60484.78;4898898;29;20044;-67
2021/11/01 09:48:40;;;;;;;7.33;2.07;;;;;;;-145.18;100.00;60484.78;4905976;29;20038;-67
2021/11/01 09:51:06;;;;;;;9.00;2.30;;;;;;;-145.18;100.00;60484.78;4976393;28;20779;-67
2021/11/01 09:53:39;;;;;;;7.60;2.27;;;;;;;-145.18;100.00;60484.78;4971784;28;20494;-68
2021/11/01 09:56:17;;;;;;;4.27;1.50;;;;;;;-145.18;100.00;60484.78;4969799;28;20694;-67
2021/11/01 10:01:27;;;;;;;7.20;1.77;;;;;;;-145.18;100.00;60484.78;4968858;28;20502;-67
2021/11/01 10:03:53;;;;;;;6.20;2.30;;;;;;;-145.18;100.00;60484.78;4983121;28;20179;-67
2021/11/01 10:06:22;;;;;;;3.70;1.90;;;;;;;-145.18;100.00;60484.78;5015224;28;20064;-68
2021/11/01 10:08:50;;;;;;;5.70;1.60;;;;;;;-145.18;100.00;60484.78;5015093;28;20044;-67
2021/11/01 10:11:19;;;;;;;5.93;2.13;;;;;;;-145.18;100.00;60484.78;5010513;28;20800;-67
2021/11/01 10:13:56;;;;;;;6.03;1.90;;;;;;;-145.18;100.00;60484.78;5017251;28;20033;-67
2021/11/01 10:19:42;;;;;;;5.07;2.00;;;;;;;-145.18;100.00;60484.78;5041623;28;20563;-67
2021/11/01 10:22:24;;;;;;;5.05;1.60;;;;;;;-145.18;100.00;60484.78;5041267;28;20276;-68
2021/11/01 10:24:54;;;;;;;8.23;2.47;;;;;;;-145.18;100.00;60484.78;5042051;28;20041;-67
2021/11/01 10:27:34;;;;;;;7.83;2.40;;;;;;;-145.18;100.00;60484.78;5041558;28;20642;-68
2021/11/01 10:30:12;;;;;;;4.00;1.90;;;;;;;-145.18;100.00;60484.78;5040387;28;20098;-68
2021/11/01 10:32:44;;;;;;;4.93;1.90;;;;;;;-145.18;100.00;60484.78;5042000;28;20028;-67
2021/11/01 10:35:29;;;;;;;4.13;2.00;;;;;;;-145.18;100.00;60484.78;5034855;28;20021;-67
2021/11/01 10:38:22;;;;;;;4.90;2.23;;;;;;;-145.18;100.00;60484.78;5043257;28;20477;-67
2021/11/01 10:41:12;;;;;;;8.15;2.08;;;;;;;-145.18;100.00;60484.78;5041656;28;20044;-67
2021/11/01 10:58:21;;;;;;;5.60;2.20;;;;;;;-145.18;100.00;60484.78;5041749;28;20067;-67
2021/11/01 11:13:12;;;;;;;3.80;1.73;;;;;;;-145.18;100.00;60484.78;5081187;28;20055;-66
2021/11/01 11:14:43;;;;;;;5.53;1.80;;;;;;;-145.18;100.00;60484.78;5039401;28;20036;-66
2021/11/01 11:17:26;;;;;;;5.40;1.70;;;;;;;-145.18;100.00;60484.78;5081533;28;20059;-66
2021/11/01 11:30:15;;;;;;;8.43;2.00;;;;;;;-145.18;100.00;60484.78;4979478;28;20034;-66
2021/11/01 11:44:02;;;;;;;5.13;2.15;;;;;;;-145.18;100.00;60484.78;4885255;29;20196;-66
2021/11/01 11:49:25;;;;;;;2.40;1.33;;;;;;;-145.18;100.00;60484.78;4877181;29;20036;-66
2021/11/01 11:52:03;;;;;;;4.17;1.40;;;;;;;-145.18;100.00;60484.78;4886389;29;20498;-66
2021/11/01 11:54:42;;;;;;;5.07;1.60;;;;;;;-145.18;100.00;60484.78;4882672;29;20211;-66
2021/11/01 11:57:23;;;;;;;2.87;1.60;;;;;;;-145.18;100.00;60484.78;4882583;29;20049;-66
2021/11/01 11:59:50;;;;;;;3.38;1.45;;;;;;;-145.18;100.00;60484.78;4882071;29;20546;-66
2021/11/01 12:02:27;;;;;;;6.00;1.60;;;;;;;-145.18;100.00;60484.78;4882342;29;20032;-66
2021/11/01 12:05:18;;;;;;;4.07;1.63;;;;;;;-145.18;100.00;60484.78;4881822;29;20647;-66
2021/11/01 12:07:58;;;;;;;5.03;1.40;;;;;;;-145.18;100.00;60484.78;4882280;29;20040;-66
2021/11/01 12:13:31;;;;;;;3.47;1.40;;;;;;;-145.18;100.00;60484.78;4974812;28;20112;-66
2021/11/01 12:18:54;;;;;;;3.03;1.53;;;;;;;-145.18;100.00;60484.78;4977716;28;20060;-66
2021/11/01 12:21:22;;;;;;;4.70;1.60;;;;;;;-145.18;100.00;60484.78;5012391;28;20091;-66
2021/11/01 12:23:47;;;;;;;6.67;1.50;;;;;;;-145.18;100.00;60484.78;5036371;28;20692;-66
2021/11/01 12:26:16;;;;;;;3.27;1.30;;;;;;;-145.18;100.00;60484.78;5036850;28;20112;-66
2021/11/01 12:28:48;;;;;;;3.80;1.73;;;;;;;-145.18;100.00;60484.78;5037948;28;20044;-68
2021/11/01 12:31:15;;;;;;;3.28;1.33;;;;;;;-145.18;100.00;60484.78;5036240;28;20094;-68
2021/11/01 12:33:47;;;;;;;2.50;1.50;;;;;;;-145.18;100.00;60484.78;5035829;28;20029;-68
2021/11/01 12:36:14;;;;;;;6.38;1.70;;;;;;;-145.18;100.00;60484.78;5036135;28;20531;-68
2021/11/01 12:38:55;;;;;;;4.50;1.50;;;;;;;-145.18;100.00;60484.78;5034930;28;20029;-68
2021/11/01 12:58:42;;;;;;;2.93;1.30;;;;;;;-145.18;100.00;60484.78;4900524;29;20584;-68
2021/11/01 13:01:15;;;;;;;4.10;1.40;;;;;;;-145.18;100.00;60484.78;4900175;29;20032;-69
2021/11/01 13:04:16;;;;;;;4.37;1.33;;;;;;;-145.18;100.00;60484.78;4899624;29;20595;-69
2021/11/01 13:07:02;;;;;;;3.87;1.40;;;;;;;-145.18;100.00;60484.78;4900013;29;20112;-69
2021/11/01 13:09:33;;;;;;;2.40;1.10;;;;;;;-145.18;100.00;60484.78;4900091;29;20264;-69
2021/11/01 13:15:04;;;;;;;5.40;1.60;;;;;;;-145.18;100.00;60484.78;4900037;29;20535;-68
2021/11/01 13:20:20;;;;;;;5.43;1.70;;;;;;;-145.18;100.00;60484.78;4900296;29;20638;-66
2021/11/01 13:22:47;;;;;;;5.63;1.50;;;;;;;-145.18;100.00;60484.78;4927702;28;20042;-66
2021/11/01 13:25:28;;;;;;;3.67;1.47;;;;;;;-145.18;100.00;60484.78;4967723;28;20204;-66
2021/11/01 13:28:18;;;;;;;3.60;1.40;;;;;;;-145.18;100.00;60484.78;4990344;28;20092;-68
2021/11/01 13:38:59;;;;;;;3.10;1.50;;;;;;;-145.18;100.00;60484.78;5078161;28;20306;-66
2021/11/01 13:41:30;;;;;;;6.63;1.80;;;;;;;-145.18;100.00;60484.78;5078823;28;20027;-66
2021/11/01 13:44:09;;;;;;;3.53;1.90;;;;;;;-145.18;100.00;60484.78;5074871;28;20032;-66
2021/11/01 13:46:42;;;;;;;4.27;1.80;;;;;;;-145.18;100.00;60484.78;5078863;28;20024;-68
2021/11/01 13:49:09;;;;;;;4.83;1.47;;;;;;;-145.18;100.00;60484.78;5077965;28;20318;-68
2021/11/01 13:51:34;;;;;;;2.50;1.47;;;;;;;-145.18;100.00;60484.78;5067674;28;20427;-68
2021/11/01 13:54:05;;;;;;;4.77;1.60;;;;;;;-145.18;100.00;60484.78;5077180;28;20199;-68
2021/11/01 13:56:41;;;;;;;5.63;1.63;;;;;;;-145.18;100.00;60484.78;5061149;28;20025;-68
2021/11/01 13:59:20;;;;;;;2.70;1.30;;;;;;;-145.18;100.00;60484.78;5078526;28;20024;-68
2021/11/01 14:19:00;;;;;;;4.30;1.20;;;;;;;-145.18;100.00;60484.78;4904765;29;20496;-66
2021/11/01 14:27:23;;;;;;;5.53;1.33;;;;;;;-145.18;100.00;60484.78;4899343;29;20547;-66
2021/11/01 14:30:07;;;;;;;11.47;1.47;;;;;;;-145.18;100.00;60484.78;4888645;29;20107;-66
2021/11/01 15:01:46;;;;;;;4.63;1.50;;;;;;;-145.18;100.00;60484.78;4904743;29;20079;-66
2021/11/01 15:12:11;;;;;;;4.00;1.37;;;;;;;-145.18;100.00;60484.78;4976793;28;20653;-66
2021/11/01 15:15:19;;;;;;;6.07;1.57;;;;;;;-145.18;100.00;60484.78;5060718;28;20485;-66
2021/11/01 15:17:42;;;;;;;3.60;1.60;;;;;;;-145.18;100.00;60484.78;5066654;28;20051;-66
2021/11/01 15:22:56;;;;;;;6.13;1.67;;;;;;;-145.18;100.00;60484.78;5009836;28;20201;-68
2021/11/01 15:28:24;;;;;;;4.37;1.30;;;;;;;-145.18;100.00;60484.78;5017981;28;20203;-66
2021/11/01 16:15:16;;;;;;;4.33;1.80;;;;;;;-145.18;100.00;60484.78;4926169;28;20109;-66
2021/11/01 16:18:10;;;;;;;6.83;2.10;;;;;;;-145.18;100.00;60484.78;5065181;28;20043;-66
2021/11/01 16:20:35;;;;;;;3.00;1.93;;;;;;;-145.18;100.00;60484.78;5072911;28;20032;-65
2021/11/01 16:23:23;;;;;;;4.83;1.90;;;;;;;-145.18;100.00;60484.78;5075611;28;20032;-66
2021/11/01 16:25:55;;;;;;;5.27;2.37;;;;;;;-145.18;100.00;60484.78;5076789;28;20042;-67
2021/11/01 16:28:22;;;;;;;5.63;1.65;;;;;;;-145.18;100.00;60484.78;5070009;28;20695;-65
2021/11/01 16:31:04;;;;;;;4.03;1.63;;;;;;;-145.18;100.00;60484.78;5071110;28;20039;-65
2021/11/01 16:33:33;;;;;;;;;;;;;;;-145.18;100.00;60484.78;5076354;28;20024;-66
2021/11/01 16:36:00;;;;;;;5.97;1.87;;;;;;;-145.18;100.00;60484.78;5069699;28;19983;-66
2021/11/01 16:38:28;;;;;;;8.73;2.63;;;;;;;-145.18;100.00;60484.78;5068182;28;20145;-66
2021/11/01 16:40:54;;;;;;;7.10;1.80;;;;;;;-145.18;100.00;60484.78;5066970;28;20036;-66
2021/11/01 16:43:24;;;;;;;5.13;2.00;;;;;;;-145.18;100.00;60484.78;5073688;28;20414;-66
2021/11/01 16:45:52;;;;;;;5.97;2.43;;;;;;;-145.18;100.00;60484.78;5068052;28;20448;-66
2021/11/01 16:48:22;;;;;;;9.13;2.40;;;;;;;-145.18;100.00;60484.78;5067936;28;20337;-66
2021/11/01 16:50:52;;;;;;;4.20;2.10;;;;;;;-145.18;100.00;60484.78;5069860;28;20384;-66
2021/11/01 16:53:19;;;;;;;11.43;2.30;;;;;;;-145.18;100.00;60484.78;5075282;28;20717;-66
2021/11/01 16:55:48;;;;;;;6.37;2.10;;;;;;;-145.18;100.00;60484.78;5074181;28;20544;-66
2021/11/01 16:58:23;;;;;;;7.20;2.23;;;;;;;-145.18;100.00;60484.78;5074149;28;20054;-67
2021/11/01 17:01:01;;;;;;;6.70;2.43;;;;;;;-145.18;100.00;60484.78;5073609;28;20028;-66
2021/11/01 17:06:11;;;;;;;4.00;2.10;;;;;;;-145.18;100.00;60484.78;5075330;28;20113;-66
2021/11/01 17:22:12;;;;;;;7.10;2.00;;;;;;;-145.18;100.00;60484.78;5072275;28;20144;-66
2021/11/01 17:24:46;;;;;;;6.17;2.00;;;;;;;-145.18;100.00;60484.78;5066794;28;20538;-66
2021/11/01 17:27:33;;;;;;;4.33;2.17;;;;;;;-145.18;100.00;60484.78;5070657;28;20028;-66
2021/11/01 18:40:32;;;;;;;5.07;2.60;;;;;;;-145.18;100.00;60484.78;5079696;28;20042;-66
2021/11/01 18:51:08;;;;;;;6.40;2.73;;;;;;;-145.18;100.00;60484.78;5078742;28;20042;-66
2021/11/01 18:53:37;;;;;;;6.00;2.73;;;;;;;-145.18;100.00;60484.78;5060183;28;20424;-66
2021/11/01 18:56:06;;;;;;;6.73;2.37;;;;;;;-145.18;100.00;60484.78;5078629;28;20039;-66
2021/11/01 18:58:33;;;;;;;6.67;2.60;;;;;;;-145.18;100.00;60484.78;5077857;28;20034;-66
2021/11/01 19:01:00;;;;;;;8.67;2.97;;;;;;;-145.18;100.00;60484.78;5076635;28;20024;-66
2021/11/01 19:03:28;;;;;;;8.50;2.93;;;;;;;-145.18;100.00;60484.78;5073379;28;20028;-66
2021/11/01 19:12:06;;;;;;;6.23;2.10;;;;;;;-145.18;100.00;60484.78;5075202;28;20314;-66
2021/11/01 20:04:46;;;;;;;4.77;2.00;;;;;;;-145.18;100.00;60484.78;4972236;28;20057;-66
2021/11/01 21:27:04;;;;;;;9.53;2.40;;;;;;;-145.18;100.00;60484.78;5074293;28;20024;-66
2021/11/01 21:29:33;;;;;;;5.33;2.30;;;;;;;-145.18;100.00;60484.78;5071318;28;20031;-66
2021/11/01 21:31:59;;;;;;;8.00;2.20;;;;;;;-145.18;100.00;60484.78;5073385;28;20504;-66
2021/11/01 21:34:32;;;;;;;7.93;2.70;;;;;;;-145.18;100.00;60484.78;5075504;28;20523;-66
2021/11/01 21:36:59;;;;;;;13.87;2.30;;;;;;;-145.18;100.00;60484.78;5071425;28;20035;-66